Private Wetterstation Wechselburg
Wetterdaten: Donnerstag, 19.10.2017
Datum Zeit Temp. +2m Bodentemp. Temp.+5cm Temp. Wind Windchill X Diff Temp. Feuchte +2m Feuchte +5cm Sonnenschein Luftdruck Regen Wind Richtung Richtung Sonnenschein Taupunkt Windchill Windben
19.10.2017 00:00 7,6 C 14,5 C 8,9 C 7,9 C 7,9 C 0,3 C 86 % 80 % 0 % 1012,9 hPa 0,0 l/m 0,0 km/h (0 Bft) W-NW 292 0 min 5,4 C 7,9 C 0,0 km/h (0 Bft)
19.10.2017 00:05 7,5 C 14,5 C 8,9 C 7,8 C 7,8 C 0,3 C 86 % 79 % 0 % 1012,9 hPa 0,0 l/m 0,0 km/h (0 Bft) W-NW 292 0 min 5,3 C 7,8 C 0,0 km/h (0 Bft)
19.10.2017 00:10 7,4 C 14,5 C 8,9 C 7,9 C 7,9 C 0,5 C 86 % 79 % 0 % 1012,9 hPa 0,0 l/m 0,0 km/h (0 Bft) W-NW 292 0 min 5,2 C 7,9 C 0,0 km/h (0 Bft)
19.10.2017 00:15 7,5 C 14,4 C 8,9 C 7,9 C 7,9 C 0,4 C 86 % 79 % 0 % 1012,9 hPa 0,0 l/m 0,0 km/h (0 Bft) W-NW 292 0 min 5,3 C 7,9 C 0,0 km/h (0 Bft)
19.10.2017 00:20 7,4 C 14,4 C 8,9 C 7,9 C 7,9 C 0,5 C 86 % 79 % 0 % 1012,9 hPa 0,0 l/m 0,0 km/h (0 Bft) W-NW 292 0 min 5,2 C 7,9 C 0,0 km/h (0 Bft)
19.10.2017 00:25 7,3 C 14,4 C 8,8 C 7,9 C 7,9 C 0,6 C 87 % 79 % 0 % 1012,9 hPa 0,0 l/m 0,0 km/h (0 Bft) W-NW 292 0 min 5,3 C 7,9 C 0,0 km/h (0 Bft)
19.10.2017 00:30 7,3 C 14,4 C 8,8 C 7,9 C 7,9 C 0,6 C 87 % 79 % 0 % 1012,9 hPa 0,0 l/m 0,0 km/h (0 Bft) W-NW 292 0 min 5,3 C 7,9 C 0,0 km/h (0 Bft)
19.10.2017 00:35 7,2 C 14,4 C 8,9 C 7,8 C 7,8 C 0,6 C 87 % 79 % 0 % 1012,9 hPa 0,0 l/m 0,0 km/h (0 Bft) W-NW 292 0 min 5,2 C 7,8 C 0,0 km/h (0 Bft)
19.10.2017 00:40 7,3 C 14,4 C 8,8 C 7,7 C 7,7 C 0,4 C 87 % 79 % 0 % 1012,9 hPa 0,0 l/m 0,0 km/h (0 Bft) W-NW 292 0 min 5,3 C 7,7 C 0,0 km/h (0 Bft)
19.10.2017 00:45 7,1 C 14,4 C 8,8 C 7,5 C 7,5 C 0,4 C 87 % 79 % 0 % 1012,9 hPa 0,0 l/m 0,0 km/h (0 Bft) W-NW 292 0 min 5,1 C 7,5 C 0,0 km/h (0 Bft)
19.10.2017 00:50 7,1 C 14,4 C 8,9 C 7,5 C 7,5 C 0,4 C 87 % 79 % 0 % 1012,9 hPa 0,0 l/m 0,0 km/h (0 Bft) W-NW 292 0 min 5,1 C 7,5 C 0,0 km/h (0 Bft)
19.10.2017 00:55 7,1 C 14,3 C 8,7 C 7,4 C 7,4 C 0,3 C 87 % 79 % 0 % 1012,9 hPa 0,0 l/m 0,0 km/h (0 Bft) W-NW 292 0 min 5,1 C 7,4 C 0,0 km/h (0 Bft)
19.10.2017 01:00 7,1 C 14,3 C 8,7 C 7,4 C 7,4 C 0,3 C 87 % 79 % 0 % 1012,9 hPa 0,0 l/m 0,0 km/h (0 Bft) W-NW 292 0 min 5,1 C 7,4 C 0,0 km/h (0 Bft)
19.10.2017 01:05 6,9 C 14,3 C 8,7 C 7,3 C 7,3 C 0,4 C 87 % 79 % 0 % 1013,1 hPa 0,0 l/m 0,0 km/h (0 Bft) W-NW 292 0 min 4,9 C 7,3 C 0,0 km/h (0 Bft)
19.10.2017 01:10 6,8 C 14,3 C 8,7 C 7,4 C 7,4 C 0,6 C 87 % 79 % 0 % 1013,1 hPa 0,0 l/m 0,0 km/h (0 Bft) W-NW 292 0 min 4,8 C 7,4 C 0,0 km/h (0 Bft)
19.10.2017 01:15 6,9 C 14,3 C 8,5 C 7,4 C 7,4 C 0,5 C 87 % 79 % 0 % 1013,1 hPa 0,0 l/m 0,0 km/h (0 Bft) W-NW 292 0 min 4,9 C 7,4 C 0,0 km/h (0 Bft)
19.10.2017 01:20 6,8 C 14,3 C 8,5 C 7,5 C 7,5 C 0,7 C 87 % 79 % 0 % 1013,1 hPa 0,0 l/m 0,0 km/h (0 Bft) W-NW 292 0 min 4,8 C 7,5 C 0,0 km/h (0 Bft)
19.10.2017 01:25 6,8 C 14,3 C 8,4 C 7,5 C 7,5 C 0,7 C 87 % 79 % 0 % 1013,4 hPa 0,0 l/m 0,0 km/h (0 Bft) W-NW 292 0 min 4,8 C 7,5 C 0,0 km/h (0 Bft)
19.10.2017 01:30 6,7 C 14,3 C 8,4 C 7,4 C 7,4 C 0,7 C 87 % 79 % 0 % 1013,4 hPa 0,0 l/m 0,0 km/h (0 Bft) W-NW 292 0 min 4,7 C 7,4 C 0,0 km/h (0 Bft)
19.10.2017 01:35 6,7 C 14,2 C 8,3 C 7,3 C 7,3 C 0,6 C 87 % 79 % 0 % 1013,4 hPa 0,0 l/m 0,0 km/h (0 Bft) W-NW 292 0 min 4,7 C 7,3 C 0,0 km/h (0 Bft)
19.10.2017 01:40 6,7 C 14,2 C 8,3 C 7,2 C 7,2 C 0,5 C 87 % 79 % 0 % 1013,4 hPa 0,0 l/m 0,0 km/h (0 Bft) W-NW 292 0 min 4,7 C 7,2 C 0,0 km/h (0 Bft)
19.10.2017 01:45 6,5 C 14,2 C 8,3 C 7,2 C 7,2 C 0,7 C 87 % 79 % 0 % 1013,4 hPa 0,0 l/m 0,0 km/h (0 Bft) W-NW 292 0 min 4,5 C 7,2 C 0,0 km/h (0 Bft)
19.10.2017 01:50 6,5 C 14,2 C 8,2 C 7,1 C 7,1 C 0,6 C 87 % 79 % 0 % 1013,4 hPa 0,0 l/m 0,0 km/h (0 Bft) W-NW 292 0 min 4,5 C 7,1 C 0,0 km/h (0 Bft)
19.10.2017 01:55 6,4 C 14,2 C 8,0 C 7,0 C 7,0 C 0,6 C 87 % 79 % 0 % 1013,4 hPa 0,0 l/m 0,0 km/h (0 Bft) W-NW 292 0 min 4,4 C 7,0 C 0,0 km/h (0 Bft)
19.10.2017 02:00 6,4 C 14,2 C 8,0 C 6,8 C 6,8 C 0,4 C 87 % 79 % 0 % 1013,4 hPa 0,0 l/m 0,0 km/h (0 Bft) W-NW 292 0 min 4,4 C 6,8 C 0,0 km/h (0 Bft)
19.10.2017 02:05 6,3 C 14,2 C 8,0 C 6,8 C 6,8 C 0,5 C 87 % 79 % 0 % 1013,2 hPa 0,0 l/m 0,0 km/h (0 Bft) W-NW 292 0 min 4,3 C 6,8 C 0,0 km/h (0 Bft)
19.10.2017 02:10 6,2 C 14,1 C 7,9 C 6,8 C 6,8 C 0,6 C 87 % 80 % 0 % 1013,2 hPa 0,0 l/m 0,0 km/h (0 Bft) W-NW 292 0 min 4,2 C 6,8 C 0,0 km/h (0 Bft)
19.10.2017 02:15 6,2 C 14,1 C 7,9 C 6,8 C 6,8 C 0,6 C 87 % 79 % 0 % 1013,2 hPa 0,0 l/m 0,0 km/h (0 Bft) W-NW 292 0 min 4,2 C 6,8 C 0,0 km/h (0 Bft)
19.10.2017 02:20 6,1 C 14,1 C 7,8 C 6,6 C 6,6 C 0,5 C 87 % 79 % 0 % 1013,2 hPa 0,0 l/m 0,0 km/h (0 Bft) W-NW 292 0 min 4,1 C 6,6 C 0,0 km/h (0 Bft)
19.10.2017 02:25 6,0 C 14,1 C 7,7 C 6,5 C 6,5 C 0,5 C 87 % 79 % 0 % 1013,4 hPa 0,0 l/m 0,0 km/h (0 Bft) W-NW 292 0 min 4,0 C 6,5 C 0,0 km/h (0 Bft)
19.10.2017 02:30 6,1 C 14,1 C 7,6 C 6,5 C 6,5 C 0,4 C 87 % 80 % 0 % 1013,4 hPa 0,0 l/m 0,0 km/h (0 Bft) W-NW 292 0 min 4,1 C 6,5 C 0,0 km/h (0 Bft)
19.10.2017 02:35 6,0 C 14,1 C 7,6 C 6,5 C 6,5 C 0,5 C 87 % 80 % 0 % 1013,4 hPa 0,0 l/m 0,0 km/h (0 Bft) W-NW 292 0 min 4,0 C 6,5 C 0,0 km/h (0 Bft)
19.10.2017 02:40 5,9 C 14,0 C 7,5 C 6,5 C 6,5 C 0,6 C 87 % 80 % 0 % 1013,4 hPa 0,0 l/m 0,0 km/h (0 Bft) W-NW 292 0 min 3,9 C 6,5 C 0,0 km/h (0 Bft)
19.10.2017 02:45 5,8 C 14,0 C 7,6 C 6,4 C 6,4 C 0,6 C 87 % 79 % 0 % 1013,2 hPa 0,0 l/m 0,0 km/h (0 Bft) W-NW 292 0 min 3,8 C 6,4 C 0,0 km/h (0 Bft)
19.10.2017 02:50 5,9 C 14,0 C 7,6 C 6,3 C 6,3 C 0,4 C 87 % 79 % 0 % 1013,2 hPa 0,0 l/m 0,0 km/h (0 Bft) W-NW 292 0 min 3,9 C 6,3 C 0,0 km/h (0 Bft)
19.10.2017 02:55 5,8 C 14,0 C 7,6 C 6,2 C 6,2 C 0,4 C 87 % 79 % 0 % 1013,2 hPa 0,0 l/m 0,0 km/h (0 Bft) W-NW 292 0 min 3,8 C 6,2 C 0,0 km/h (0 Bft)
19.10.2017 03:00 5,7 C 14,0 C 7,5 C 6,2 C 6,2 C 0,5 C 87 % 79 % 0 % 1013,2 hPa 0,0 l/m 0,0 km/h (0 Bft) W-NW 292 0 min 3,7 C 6,2 C 0,0 km/h (0 Bft)
19.10.2017 03:05 5,6 C 14,0 C 7,5 C 6,1 C 6,1 C 0,5 C 87 % 80 % 0 % 1013,6 hPa 0,0 l/m 0,0 km/h (0 Bft) W-NW 292 0 min 3,6 C 6,1 C 0,0 km/h (0 Bft)
19.10.2017 03:10 5,6 C 14,0 C 7,4 C 6,1 C 6,1 C 0,5 C 87 % 79 % 0 % 1013,6 hPa 0,0 l/m 0,0 km/h (0 Bft) W-NW 292 0 min 3,6 C 6,1 C 0,0 km/h (0 Bft)
19.10.2017 03:15 5,5 C 13,9 C 7,3 C 6,1 C 6,1 C 0,6 C 87 % 79 % 0 % 1013,6 hPa 0,0 l/m 0,0 km/h (0 Bft) W-NW 292 0 min 3,5 C 6,1 C 0,0 km/h (0 Bft)
19.10.2017 03:20 5,5 C 13,9 C 7,2 C 6,1 C 6,1 C 0,6 C 87 % 79 % 0 % 1013,6 hPa 0,0 l/m 0,0 km/h (0 Bft) W-NW 292 0 min 3,5 C 6,1 C 0,0 km/h (0 Bft)
19.10.2017 03:25 5,5 C 14,0 C 7,2 C 6,1 C 6,1 C 0,6 C 87 % 79 % 0 % 1013,3 hPa 0,0 l/m 0,0 km/h (0 Bft) W-NW 292 0 min 3,5 C 6,1 C 0,0 km/h (0 Bft)
19.10.2017 03:30 5,5 C 14,0 C 7,3 C 6,0 C 6,0 C 0,5 C 87 % 79 % 0 % 1013,3 hPa 0,0 l/m 0,0 km/h (0 Bft) W-NW 292 0 min 3,5 C 6,0 C 0,0 km/h (0 Bft)
19.10.2017 03:35 5,4 C 14,0 C 7,1 C 6,0 C 6,0 C 0,6 C 87 % 79 % 0 % 1013,3 hPa 0,0 l/m 0,0 km/h (0 Bft) W-NW 292 0 min 3,4 C 6,0 C 0,0 km/h (0 Bft)
19.10.2017 03:40 5,3 C 14,0 C 7,1 C 6,1 C 6,1 C 0,8 C 87 % 79 % 0 % 1013,3 hPa 0,0 l/m 0,0 km/h (0 Bft) W-NW 292 0 min 3,3 C 6,1 C 0,0 km/h (0 Bft)
19.10.2017 03:45 5,3 C 13,9 C 7,0 C 6,2 C 6,2 C 0,9 C 87 % 79 % 0 % 1013,8 hPa 0,0 l/m 0,0 km/h (0 Bft) W-NW 292 0 min 3,3 C 6,2 C 0,0 km/h (0 Bft)
19.10.2017 03:50 5,3 C 13,9 C 7,1 C 6,3 C 6,3 C 1,0 C 87 % 79 % 0 % 1013,8 hPa 0,0 l/m 0,0 km/h (0 Bft) W-NW 292 0 min 3,3 C 6,3 C 0,0 km/h (0 Bft)
19.10.2017 03:55 5,2 C 13,9 C 7,1 C 6,2 C 6,2 C 1,0 C 87 % 79 % 0 % 1013,8 hPa 0,0 l/m 0,0 km/h (0 Bft) W-NW 292 0 min 3,2 C 6,2 C 0,0 km/h (0 Bft)
19.10.2017 04:00 5,2 C 13,9 C 7,1 C 6,1 C 6,1 C 0,9 C 87 % 79 % 0 % 1013,8 hPa 0,0 l/m 0,0 km/h (0 Bft) W-NW 292 0 min 3,2 C 6,1 C 0,0 km/h (0 Bft)
19.10.2017 04:05 5,2 C 13,9 C 7,0 C 5,8 C 5,8 C 0,6 C 87 % 79 % 0 % 1013,9 hPa 0,0 l/m 0,0 km/h (0 Bft) W-NW 292 0 min 3,2 C 5,8 C 0,0 km/h (0 Bft)
19.10.2017 04:10 5,1 C 13,9 C 6,9 C 5,8 C 5,8 C 0,7 C 87 % 79 % 0 % 1013,9 hPa 0,0 l/m 0,0 km/h (0 Bft) W-NW 292 0 min 3,1 C 5,8 C 0,0 km/h (0 Bft)
19.10.2017 04:15 5,1 C 13,9 C 6,9 C 5,7 C 5,7 C 0,6 C 87 % 79 % 0 % 1013,9 hPa 0,0 l/m 0,0 km/h (0 Bft) W-NW 292 0 min 3,1 C 5,7 C 0,0 km/h (0 Bft)
19.10.2017 04:20 5,0 C 13,8 C 6,9 C 5,6 C 5,6 C 0,6 C 87 % 79 % 0 % 1013,9 hPa 0,0 l/m 0,0 km/h (0 Bft) W-NW 292 0 min 3,0 C 5,6 C 0,0 km/h (0 Bft)
19.10.2017 04:25 5,0 C 13,8 C 6,9 C 5,5 C 5,5 C 0,5 C 87 % 79 % 0 % 1013,6 hPa 0,0 l/m 0,0 km/h (0 Bft) W-NW 292 0 min 3,0 C 5,5 C 0,0 km/h (0 Bft)
19.10.2017 04:30 4,9 C 13,8 C 6,7 C 5,6 C 5,6 C 0,7 C 87 % 79 % 0 % 1013,6 hPa 0,0 l/m 0,0 km/h (0 Bft) W-NW 292 0 min 2,9 C 5,6 C 0,0 km/h (0 Bft)
19.10.2017 04:35 5,1 C 13,8 C 6,8 C 5,7 C 5,7 C 0,6 C 87 % 79 % 0 % 1013,6 hPa 0,0 l/m 0,0 km/h (0 Bft) W-NW 292 0 min 3,1 C 5,7 C 0,0 km/h (0 Bft)
19.10.2017 04:40 5,0 C 13,8 C 6,8 C 5,6 C 5,6 C 0,6 C 87 % 79 % 0 % 1013,6 hPa 0,0 l/m 0,0 km/h (0 Bft) W-NW 292 0 min 3,0 C 5,6 C 0,0 km/h (0 Bft)
19.10.2017 04:45 4,9 C 13,8 C 6,8 C 5,4 C 5,4 C 0,5 C 87 % 79 % 0 % 1013,9 hPa 0,0 l/m 0,0 km/h (0 Bft) W-NW 292 0 min 2,9 C 5,4 C 0,0 km/h (0 Bft)
19.10.2017 04:50 4,8 C 13,7 C 6,7 C 5,2 C 5,2 C 0,4 C 87 % 79 % 0 % 1013,9 hPa 0,0 l/m 0,0 km/h (0 Bft) W-NW 292 0 min 2,8 C 5,2 C 0,0 km/h (0 Bft)
19.10.2017 04:55 4,8 C 13,7 C 6,7 C 5,1 C 5,1 C 0,3 C 87 % 79 % 0 % 1013,9 hPa 0,0 l/m 0,0 km/h (0 Bft) W-NW 292 0 min 2,8 C 5,1 C 0,0 km/h (0 Bft)
19.10.2017 05:00 4,7 C 13,7 C 6,6 C 5,1 C 5,1 C 0,4 C 87 % 79 % 0 % 1013,9 hPa 0,0 l/m 0,0 km/h (0 Bft) W-NW 292 0 min 2,7 C 5,1 C 0,0 km/h (0 Bft)
19.10.2017 05:05 4,7 C 13,7 C 6,7 C 5,0 C 5,0 C 0,3 C 87 % 79 % 0 % 1013,9 hPa 0,0 l/m 0,0 km/h (0 Bft) W-NW 292 0 min 2,7 C 5,0 C 0,0 km/h (0 Bft)
19.10.2017 05:10 4,5 C 13,7 C 6,7 C 4,9 C 4,9 C 0,4 C 87 % 79 % 0 % 1013,9 hPa 0,0 l/m 0,0 km/h (0 Bft) W-NW 292 0 min 2,5 C 4,9 C 0,0 km/h (0 Bft)
19.10.2017 05:15 4,4 C 13,7 C 6,4 C 5,0 C 5,0 C 0,6 C 87 % 79 % 0 % 1013,9 hPa 0,0 l/m 0,0 km/h (0 Bft) W-NW 292 0 min 2,4 C 5,0 C 0,0 km/h (0 Bft)
19.10.2017 05:20 4,4 C 13,7 C 6,4 C 5,0 C 5,0 C 0,6 C 87 % 79 % 0 % 1013,9 hPa 0,0 l/m 0,0 km/h (0 Bft) W-NW 292 0 min 2,4 C 5,0 C 0,0 km/h (0 Bft)
19.10.2017 05:25 4,4 C 13,6 C 6,4 C 5,1 C 5,1 C 0,7 C 87 % 79 % 0 % 1013,6 hPa 0,0 l/m 0,0 km/h (0 Bft) W-NW 292 0 min 2,4 C 5,1 C 0,0 km/h (0 Bft)
19.10.2017 05:30 4,5 C 13,6 C 6,4 C 5,1 C 5,1 C 0,6 C 87 % 79 % 0 % 1013,6 hPa 0,0 l/m 0,0 km/h (0 Bft) W-NW 292 0 min 2,5 C 5,1 C 0,0 km/h (0 Bft)
19.10.2017 05:35 4,4 C 13,6 C 6,4 C 4,9 C 4,9 C 0,5 C 87 % 79 % 0 % 1013,6 hPa 0,0 l/m 0,0 km/h (0 Bft) W-NW 292 0 min 2,4 C 4,9 C 0,0 km/h (0 Bft)
19.10.2017 05:40 4,3 C 13,6 C 6,5 C 4,9 C 4,9 C 0,6 C 87 % 79 % 0 % 1013,6 hPa 0,0 l/m 0,0 km/h (0 Bft) W-NW 292 0 min 2,3 C 4,9 C 0,0 km/h (0 Bft)
19.10.2017 05:45 4,2 C 13,6 C 6,3 C 4,8 C 4,8 C 0,6 C 87 % 79 % 0 % 1013,8 hPa 0,0 l/m 0,0 km/h (0 Bft) W-NW 292 0 min 2,2 C 4,8 C 0,0 km/h (0 Bft)
19.10.2017 05:50 4,3 C 13,6 C 6,3 C 4,8 C 4,8 C 0,5 C 87 % 79 % 0 % 1013,8 hPa 0,0 l/m 0,0 km/h (0 Bft) W-NW 292 0 min 2,3 C 4,8 C 0,0 km/h (0 Bft)
19.10.2017 05:55 4,1 C 13,5 C 6,2 C 4,9 C 4,9 C 0,8 C 87 % 79 % 0 % 1013,8 hPa 0,0 l/m 0,0 km/h (0 Bft) W-NW 292 0 min 2,1 C 4,9 C 0,0 km/h (0 Bft)
19.10.2017 06:00 4,1 C 13,5 C 6,3 C 5,0 C 5,0 C 0,9 C 87 % 79 % 0 % 1013,8 hPa 0,0 l/m 0,0 km/h (0 Bft) W-NW 292 0 min 2,1 C 5,0 C 0,0 km/h (0 Bft)
19.10.2017 06:05 4,1 C 13,5 C 6,3 C 5,1 C 5,1 C 1,0 C 87 % 79 % 0 % 1013,8 hPa 0,0 l/m 0,0 km/h (0 Bft) W-NW 292 0 min 2,1 C 5,1 C 0,0 km/h (0 Bft)
19.10.2017 06:10 4,1 C 13,5 C 6,3 C 5,1 C 5,1 C 1,0 C 87 % 79 % 0 % 1013,8 hPa 0,0 l/m 0,0 km/h (0 Bft) W-NW 292 0 min 2,1 C 5,1 C 0,0 km/h (0 Bft)
19.10.2017 06:15 4,1 C 13,5 C 6,3 C 4,9 C 4,9 C 0,8 C 87 % 79 % 0 % 1013,8 hPa 0,0 l/m 0,0 km/h (0 Bft) W-NW 292 0 min 2,1 C 4,9 C 0,0 km/h (0 Bft)
19.10.2017 06:20 4,0 C 13,5 C 6,3 C 4,9 C 4,9 C 0,9 C 87 % 79 % 0 % 1013,8 hPa 0,0 l/m 0,0 km/h (0 Bft) W-NW 292 0 min 2,0 C 4,9 C 0,0 km/h (0 Bft)
19.10.2017 06:25 4,0 C 13,5 C 6,2 C 4,9 C 4,9 C 0,9 C 87 % 79 % 0 % 1013,8 hPa 0,0 l/m 0,0 km/h (0 Bft) W-NW 292 0 min 2,0 C 4,9 C 0,0 km/h (0 Bft)
19.10.2017 06:30 4,1 C 13,5 C 6,2 C 4,8 C 4,8 C 0,7 C 87 % 79 % 0 % 1013,8 hPa 0,0 l/m 0,0 km/h (0 Bft) W-NW 292 0 min 2,1 C 4,8 C 0,0 km/h (0 Bft)
19.10.2017 06:35 4,1 C 13,4 C 6,1 C 4,9 C 4,9 C 0,8 C 88 % 79 % 0 % 1013,8 hPa 0,0 l/m 0,0 km/h (0 Bft) W-NW 292 0 min 2,3 C 4,9 C 0,0 km/h (0 Bft)
19.10.2017 06:40 4,1 C 13,4 C 6,0 C 5,1 C 5,1 C 1,0 C 87 % 79 % 0 % 1013,8 hPa 0,0 l/m 0,0 km/h (0 Bft) W-NW 292 0 min 2,1 C 5,1 C 0,0 km/h (0 Bft)
19.10.2017 06:45 4,1 C 13,4 C 6,1 C 5,1 C 5,1 C 1,0 C 88 % 79 % 0 % 1013,8 hPa 0,0 l/m 0,0 km/h (0 Bft) W-NW 292 0 min 2,3 C 5,1 C 0,0 km/h (0 Bft)
19.10.2017 06:50 4,0 C 13,4 C 6,0 C 5,1 C 5,1 C 1,1 C 88 % 79 % 0 % 1013,8 hPa 0,0 l/m 0,0 km/h (0 Bft) W-NW 292 0 min 2,2 C 5,1 C 0,0 km/h (0 Bft)
19.10.2017 06:55 4,3 C 13,4 C 6,1 C 5,6 C 5,6 C 1,3 C 88 % 79 % 0 % 1013,8 hPa 0,0 l/m 0,0 km/h (0 Bft) W-NW 292 0 min 2,5 C 5,6 C 0,0 km/h (0 Bft)
19.10.2017 07:00 4,4 C 13,4 C 6,1 C 5,8 C 5,8 C 1,4 C 88 % 79 % 0 % 1013,8 hPa 0,0 l/m 0,0 km/h (0 Bft) W-NW 292 0 min 2,6 C 5,8 C 0,0 km/h (0 Bft)
19.10.2017 07:05 4,4 C 13,4 C 6,3 C 5,6 C 5,6 C 1,2 C 88 % 78 % 0 % 1014,0 hPa 0,0 l/m 0,0 km/h (0 Bft) W-NW 292 0 min 2,6 C 5,6 C 0,0 km/h (0 Bft)
19.10.2017 07:10 4,3 C 13,4 C 6,3 C 5,4 C 5,4 C 1,1 C 87 % 78 % 0 % 1014,0 hPa 0,0 l/m 0,0 km/h (0 Bft) W-NW 292 0 min 2,3 C 5,4 C 0,0 km/h (0 Bft)
19.10.2017 07:15 4,3 C 13,3 C 6,3 C 5,2 C 5,2 C 0,9 C 88 % 78 % 0 % 1014,0 hPa 0,0 l/m 0,0 km/h (0 Bft) W-NW 292 0 min 2,5 C 5,2 C 0,0 km/h (0 Bft)
19.10.2017 07:20 4,3 C 13,3 C 6,2 C 5,1 C 5,1 C 0,8 C 87 % 78 % 0 % 1014,0 hPa 0,0 l/m 0,0 km/h (0 Bft) W-NW 292 0 min 2,3 C 5,1 C 0,0 km/h (0 Bft)
19.10.2017 07:25 4,1 C 13,3 C 6,3 C 4,9 C 4,9 C 0,8 C 87 % 79 % 0 % 1014,2 hPa 0,0 l/m 0,0 km/h (0 Bft) W-NW 292 0 min 2,1 C 4,9 C 0,0 km/h (0 Bft)
19.10.2017 07:30 4,0 C 13,3 C 6,2 C 4,8 C 4,8 C 0,8 C 87 % 78 % 0 % 1014,2 hPa 0,0 l/m 0,0 km/h (0 Bft) W-NW 292 0 min 2,0 C 4,8 C 0,0 km/h (0 Bft)
19.10.2017 07:35 4,1 C 13,3 C 6,2 C 4,7 C 4,7 C 0,6 C 88 % 79 % 0 % 1014,2 hPa 0,0 l/m 0,0 km/h (0 Bft) W-NW 292 0 min 2,3 C 4,7 C 0,0 km/h (0 Bft)
19.10.2017 07:40 4,0 C 13,3 C 6,2 C 4,7 C 4,7 C 0,7 C 88 % 78 % 0 % 1014,2 hPa 0,0 l/m 0,0 km/h (0 Bft) W-NW 292 0 min 2,2 C 4,7 C 0,0 km/h (0 Bft)
19.10.2017 07:45 4,0 C 13,3 C 6,3 C 4,6 C 4,6 C 0,6 C 88 % 78 % 0 % 1014,2 hPa 0,0 l/m 0,0 km/h (0 Bft) W-NW 292 0 min 2,2 C 4,6 C 0,0 km/h (0 Bft)
19.10.2017 07:50 3,9 C 13,2 C 6,2 C 4,6 C 4,6 C 0,7 C 88 % 78 % 0 % 1014,2 hPa 0,0 l/m 0,0 km/h (0 Bft) W-NW 292 0 min 2,1 C 4,6 C 0,0 km/h (0 Bft)
19.10.2017 07:55 3,9 C 13,2 C 6,2 C 4,7 C 4,7 C 0,8 C 88 % 78 % 21 % 1014,2 hPa 0,0 l/m 0,0 km/h (0 Bft) W-NW 292 5 min 2,1 C 4,7 C 0,0 km/h (0 Bft)
19.10.2017 08:00 3,9 C 13,2 C 6,1 C 4,7 C 4,7 C 0,8 C 88 % 78 % 21 % 1014,2 hPa 0,0 l/m 0,0 km/h (0 Bft) W-NW 292 5 min 2,1 C 4,7 C 0,0 km/h (0 Bft)
19.10.2017 08:05 3,9 C 13,2 C 6,1 C 4,9 C 4,9 C 1,0 C 88 % 79 % 26 % 1014,4 hPa 0,0 l/m 0,0 km/h (0 Bft) W-NW 292 5 min 2,1 C 4,9 C 0,0 km/h (0 Bft)
19.10.2017 08:10 3,9 C 13,2 C 6,3 C 4,9 C 4,9 C 1,0 C 88 % 78 % 26 % 1014,4 hPa 0,0 l/m 0,0 km/h (0 Bft) W-NW 292 5 min 2,1 C 4,9 C 0,0 km/h (0 Bft)
19.10.2017 08:15 3,9 C 13,2 C 6,3 C 5,0 C 5,0 C 1,1 C 88 % 78 % 29 % 1014,4 hPa 0,0 l/m 0,0 km/h (0 Bft) W-NW 292 5 min 2,1 C 5,0 C 0,0 km/h (0 Bft)
19.10.2017 08:20 3,9 C 13,2 C 6,3 C 5,1 C 5,1 C 1,2 C 88 % 78 % 32 % 1014,4 hPa 0,0 l/m 0,0 km/h (0 Bft) W-NW 292 5 min 2,1 C 5,1 C 0,0 km/h (0 Bft)
19.10.2017 08:25 3,9 C 13,2 C 6,3 C 5,1 C 5,1 C 1,2 C 88 % 78 % 32 % 1014,4 hPa 0,0 l/m 0,0 km/h (0 Bft) W-NW 292 5 min 2,1 C 5,1 C 0,0 km/h (0 Bft)
19.10.2017 08:30 3,9 C 13,2 C 6,5 C 5,2 C 5,2 C 1,3 C 88 % 79 % 34 % 1014,4 hPa 0,0 l/m 0,0 km/h (0 Bft) W-NW 292 5 min 2,1 C 5,2 C 0,0 km/h (0 Bft)
19.10.2017 08:35 4,0 C 13,2 C 6,5 C 5,3 C 5,3 C 1,3 C 88 % 79 % 34 % 1014,4 hPa 0,0 l/m 0,0 km/h (0 Bft) W-NW 292 5 min 2,2 C 5,3 C 0,0 km/h (0 Bft)
19.10.2017 08:40 4,0 C 13,1 C 6,5 C 5,4 C 5,4 C 1,4 C 88 % 79 % 37 % 1014,4 hPa 0,0 l/m 0,0 km/h (0 Bft) W-NW 292 5 min 2,2 C 5,4 C 0,0 km/h (0 Bft)
19.10.2017 08:45 4,0 C 13,1 C 6,7 C 5,6 C 5,6 C 1,6 C 88 % 78 % 42 % 1014,8 hPa 0,0 l/m 0,0 km/h (0 Bft) W-NW 292 5 min 2,2 C 5,6 C 0,0 km/h (0 Bft)
19.10.2017 08:50 4,1 C 13,1 C 6,7 C 5,6 C 5,6 C 1,5 C 88 % 78 % 39 % 1014,8 hPa 0,0 l/m 0,0 km/h (0 Bft) W-NW 292 0 min 2,3 C 5,6 C 0,0 km/h (0 Bft)
19.10.2017 08:55 4,3 C 13,1 C 6,8 C 5,8 C 5,8 C 1,5 C 88 % 78 % 39 % 1014,8 hPa 0,0 l/m 0,0 km/h (0 Bft) W-NW 292 0 min 2,5 C 5,8 C 0,0 km/h (0 Bft)
19.10.2017 09:00 4,4 C 13,1 C 6,8 C 5,9 C 5,9 C 1,5 C 88 % 78 % 39 % 1014,8 hPa 0,0 l/m 0,0 km/h (0 Bft) W-NW 292 0 min 2,6 C 5,9 C 0,0 km/h (0 Bft)
19.10.2017 09:05 4,5 C 13,1 C 7,0 C 6,2 C 6,2 C 1,7 C 88 % 78 % 45 % 1014,8 hPa 0,0 l/m 0,0 km/h (0 Bft) W-NW 292 0 min 2,7 C 6,2 C 0,0 km/h (0 Bft)
19.10.2017 09:10 4,7 C 13,1 C 7,0 C 6,3 C 6,3 C 1,6 C 88 % 78 % 42 % 1014,8 hPa 0,0 l/m 0,0 km/h (0 Bft) W-NW 292 0 min 2,9 C 6,3 C 0,0 km/h (0 Bft)
19.10.2017 09:15 4,8 C 13,0 C 7,3 C 6,5 C 6,5 C 1,7 C 88 % 78 % 45 % 1014,8 hPa 0,0 l/m 0,0 km/h (0 Bft) W-NW 292 0 min 3,0 C 6,5 C 0,0 km/h (0 Bft)
19.10.2017 09:20 4,8 C 13,0 C 7,5 C 6,8 C 6,8 C 2,0 C 88 % 78 % 53 % 1014,8 hPa 0,0 l/m 0,0 km/h (0 Bft) W-NW 292 0 min 3,0 C 6,8 C 0,0 km/h (0 Bft)
19.10.2017 09:25 5,2 C 13,0 C 7,5 C 7,1 C 7,1 C 1,9 C 88 % 78 % 50 % 1015,0 hPa 0,0 l/m 0,0 km/h (0 Bft) W-NW 292 0 min 3,4 C 7,1 C 0,0 km/h (0 Bft)
19.10.2017 09:30 5,3 C 13,0 C 7,7 C 7,4 C 7,4 C 2,1 C 88 % 77 % 55 % 1015,0 hPa 0,0 l/m 0,0 km/h (0 Bft) W-NW 292 0 min 3,5 C 7,4 C 0,0 km/h (0 Bft)
19.10.2017 09:35 5,4 C 13,0 C 7,9 C 7,7 C 7,7 C 2,3 C 88 % 77 % 61 % 1015,0 hPa 0,0 l/m 0,0 km/h (0 Bft) W-NW 292 0 min 3,6 C 7,7 C 0,0 km/h (0 Bft)
19.10.2017 09:40 5,7 C 13,0 C 8,1 C 7,8 C 7,8 C 2,1 C 88 % 77 % 55 % 1015,0 hPa 0,0 l/m 0,0 km/h (0 Bft) W-NW 292 0 min 3,9 C 7,8 C 0,0 km/h (0 Bft)
19.10.2017 09:45 6,0 C 13,0 C 8,4 C 8,0 C 8,0 C 2,0 C 88 % 77 % 53 % 1015,2 hPa 0,0 l/m 0,0 km/h (0 Bft) W-NW 292 0 min 4,2 C 8,0 C 0,0 km/h (0 Bft)
19.10.2017 09:50 6,1 C 13,0 C 8,5 C 8,1 C 8,1 C 2,0 C 88 % 77 % 53 % 1015,2 hPa 0,0 l/m 0,0 km/h (0 Bft) W-NW 292 0 min 4,3 C 8,1 C 0,0 km/h (0 Bft)
19.10.2017 09:55 6,3 C 13,0 C 8,7 C 8,4 C 8,4 C 2,1 C 88 % 77 % 55 % 1015,2 hPa 0,0 l/m 0,0 km/h (0 Bft) W-NW 292 0 min 4,5 C 8,4 C 0,0 km/h (0 Bft)
19.10.2017 10:00 6,5 C 13,0 C 9,0 C 8,6 C 8,6 C 2,1 C 88 % 77 % 55 % 1015,2 hPa 0,0 l/m 0,0 km/h (0 Bft) W-NW 292 0 min 4,7 C 8,6 C 0,0 km/h (0 Bft)
19.10.2017 10:05 7,0 C 13,0 C 9,3 C 9,0 C 9,0 C 2,0 C 88 % 76 % 53 % 1015,1 hPa 0,0 l/m 0,0 km/h (0 Bft) W-NW 292 0 min 5,2 C 9,0 C 0,0 km/h (0 Bft)
19.10.2017 10:10 7,2 C 13,0 C 9,5 C 9,2 C 9,2 C 2,0 C 88 % 76 % 53 % 1015,1 hPa 0,0 l/m 0,0 km/h (0 Bft) W-NW 292 0 min 5,3 C 9,2 C 0,0 km/h (0 Bft)
19.10.2017 10:15 7,6 C 13,0 C 9,6 C 9,7 C 9,7 C 2,1 C 88 % 76 % 55 % 1015,1 hPa 0,0 l/m 0,0 km/h (0 Bft) W-NW 292 0 min 5,7 C 9,7 C 0,0 km/h (0 Bft)
19.10.2017 10:20 7,8 C 13,0 C 9,8 C 10,1 C 10,1 C 2,3 C 88 % 76 % 61 % 1015,1 hPa 0,0 l/m 0,0 km/h (0 Bft) W-NW 292 0 min 5,9 C 10,1 C 0,0 km/h (0 Bft)
19.10.2017 10:25 8,1 C 13,0 C 10,0 C 10,3 C 10,3 C 2,2 C 88 % 76 % 58 % 1015,5 hPa 0,0 l/m 0,0 km/h (0 Bft) W-NW 292 0 min 6,2 C 10,3 C 0,0 km/h (0 Bft)
19.10.2017 10:30 8,3 C 13,0 C 10,3 C 10,7 C 10,7 C 2,4 C 88 % 76 % 63 % 1015,5 hPa 0,0 l/m 0,0 km/h (0 Bft) W-NW 292 0 min 6,4 C 10,7 C 0,0 km/h (0 Bft)
19.10.2017 10:35 8,7 C 13,1 C 10,6 C 11,6 C 11,6 C 2,9 C 88 % 75 % 76 % 1015,5 hPa 0,0 l/m 0,0 km/h (0 Bft) W-NW 292 0 min 6,8 C 11,6 C 0,0 km/h (0 Bft)
19.10.2017 10:40 9,0 C 13,0 C 10,8 C 12,6 C 12,6 C 3,6 C 88 % 75 % 95 % 1015,5 hPa 0,0 l/m 0,0 km/h (0 Bft) W-NW 292 5 min 7,1 C 12,6 C 0,0 km/h (0 Bft)
19.10.2017 10:45 9,5 C 13,0 C 11,1 C 13,0 C 13,0 C 3,5 C 88 % 75 % 92 % 1015,4 hPa 0,0 l/m 0,0 km/h (0 Bft) W-NW 292 5 min 7,6 C 13,0 C 0,0 km/h (0 Bft)
19.10.2017 10:50 9,6 C 13,0 C 11,2 C 12,6 C 12,6 C 3,0 C 88 % 75 % 79 % 1015,4 hPa 0,0 l/m 0,0 km/h (0 Bft) W-NW 292 0 min 7,7 C 12,6 C 0,0 km/h (0 Bft)
19.10.2017 10:55 9,8 C 12,9 C 11,5 C 12,8 C 12,8 C 3,0 C 88 % 75 % 79 % 1015,4 hPa 0,0 l/m 0,0 km/h (0 Bft) W-SW 247 0 min 7,9 C 12,8 C 0,0 km/h (0 Bft)
19.10.2017 11:00 10,0 C 12,9 C 11,7 C 13,0 C 13,0 C 3,0 C 88 % 75 % 79 % 1015,4 hPa 0,0 l/m 0,0 km/h (0 Bft) W-SW 247 0 min 8,1 C 13,0 C 1,8 km/h (1 Bft)
19.10.2017 11:05 10,2 C 12,9 C 12,0 C 13,2 C 13,2 C 3,0 C 88 % 75 % 79 % 1015,4 hPa 0,0 l/m 0,0 km/h (0 Bft) W 270 0 min 8,3 C 13,2 C 0,0 km/h (0 Bft)
19.10.2017 11:10 10,4 C 12,7 C 12,1 C 13,6 C 13,6 C 3,2 C 88 % 75 % 84 % 1015,4 hPa 0,0 l/m 0,0 km/h (0 Bft) W-SW 247 0 min 8,5 C 13,6 C 0,0 km/h (0 Bft)
19.10.2017 11:15 10,6 C 12,8 C 12,6 C 13,9 C 13,9 C 3,3 C 88 % 75 % 87 % 1015,4 hPa 0,0 l/m 0,0 km/h (0 Bft) W-SW 247 5 min 8,7 C 13,9 C 0,0 km/h (0 Bft)
19.10.2017 11:20 10,9 C 12,8 C 12,9 C 14,0 C 14,0 C 3,1 C 88 % 75 % 82 % 1015,4 hPa 0,0 l/m 0,0 km/h (0 Bft) SW 225 0 min 9,0 C 14,0 C 0,0 km/h (0 Bft)
19.10.2017 11:25 11,1 C 12,8 C 13,1 C 14,3 C 14,3 C 3,2 C 88 % 75 % 84 % 1015,4 hPa 0,0 l/m 0,0 km/h (0 Bft) S-SW 202 0 min 9,2 C 14,3 C 0,0 km/h (0 Bft)
19.10.2017 11:30 11,5 C 12,8 C 13,3 C 14,8 C 14,8 C 3,3 C 88 % 75 % 87 % 1015,4 hPa 0,0 l/m 0,2 km/h (0 Bft) SW 225 5 min 9,6 C 14,8 C 0,0 km/h (0 Bft)
19.10.2017 11:35 11,8 C 12,8 C 13,5 C 16,0 C 16,0 C 4,2 C 88 % 75 % 100 % 1015,4 hPa 0,0 l/m 0,2 km/h (0 Bft) W-SW 247 5 min 9,9 C 16,0 C 0,0 km/h (0 Bft)
19.10.2017 11:40 12,1 C 12,8 C 13,7 C 16,5 C 16,5 C 4,4 C 88 % 75 % 100 % 1015,4 hPa 0,0 l/m 0,2 km/h (0 Bft) SW 225 5 min 10,2 C 16,5 C 2,9 km/h (1 Bft)
19.10.2017 11:45 12,7 C 12,8 C 13,9 C 16,9 C 16,9 C 4,2 C 88 % 76 % 100 % 1015,4 hPa 0,0 l/m 0,3 km/h (0 Bft) SW 225 5 min 10,8 C 16,9 C 3,7 km/h (1 Bft)
19.10.2017 11:50 13,1 C 12,8 C 14,1 C 17,5 C 17,5 C 4,4 C 88 % 76 % 100 % 1015,4 hPa 0,0 l/m 0,8 km/h (0 Bft) S-SW 202 5 min 11,2 C 17,5 C 1,6 km/h (1 Bft)
19.10.2017 11:55 13,4 C 12,8 C 14,4 C 18,9 C 18,9 C 5,5 C 88 % 77 % 100 % 1015,4 hPa 0,0 l/m 0,5 km/h (0 Bft) SW 225 5 min 11,5 C 18,9 C 0,0 km/h (0 Bft)
19.10.2017 12:00 13,7 C 12,8 C 14,5 C 19,6 C 19,6 C 5,9 C 88 % 77 % 100 % 1015,4 hPa 0,0 l/m 0,2 km/h (0 Bft) SW 225 5 min 11,7 C 19,6 C 0,0 km/h (0 Bft)
19.10.2017 12:05 14,4 C 12,7 C 14,9 C 20,0 C 20,0 C 5,6 C 87 % 78 % 100 % 1015,3 hPa 0,0 l/m 0,6 km/h (0 Bft) SW 225 5 min 12,3 C 20,0 C 5,6 km/h (1 Bft)
19.10.2017 12:10 14,8 C 12,7 C 15,1 C 20,0 C 20,0 C 5,2 C 87 % 78 % 100 % 1015,3 hPa 0,0 l/m 1,8 km/h (1 Bft) S-SW 202 5 min 12,7 C 20,0 C 1,6 km/h (1 Bft)
19.10.2017 12:15 15,2 C 12,7 C 15,4 C 20,3 C 20,3 C 5,1 C 86 % 79 % 100 % 1015,3 hPa 0,0 l/m 1,6 km/h (1 Bft) W-SW 247 5 min 12,9 C 20,3 C 0,0 km/h (0 Bft)
19.10.2017 12:20 15,8 C 12,8 C 15,7 C 20,9 C 20,9 C 5,1 C 86 % 80 % 100 % 1015,3 hPa 0,0 l/m 1,0 km/h (0 Bft) SW 225 5 min 13,5 C 20,9 C 3,4 km/h (1 Bft)
19.10.2017 12:25 17,0 C 12,8 C 15,7 C 21,3 C 21,3 C 4,3 C 84 % 81 % 100 % 1015,3 hPa 0,0 l/m 1,4 km/h (1 Bft) W-SW 247 5 min 14,3 C 21,3 C 3,2 km/h (1 Bft)
19.10.2017 12:30 17,6 C 12,8 C 15,9 C 21,5 C 21,5 C 3,9 C 81 % 81 % 100 % 1015,3 hPa 0,0 l/m 1,6 km/h (1 Bft) SW 225 5 min 14,3 C 21,5 C 2,4 km/h (1 Bft)
19.10.2017 12:35 18,3 C 12,9 C 16,1 C 21,9 C 21,9 C 3,6 C 78 % 81 % 95 % 1015,3 hPa 0,0 l/m 1,6 km/h (1 Bft) W-SW 247 5 min 14,4 C 21,9 C 6,4 km/h (2 Bft)
19.10.2017 12:40 18,3 C 12,9 C 16,1 C 22,4 C 22,4 C 4,1 C 76 % 81 % 100 % 1015,3 hPa 0,0 l/m 1,0 km/h (0 Bft) W-SW 247 5 min 14,0 C 22,4 C 0,0 km/h (0 Bft)
19.10.2017 12:45 18,6 C 12,9 C 16,4 C 23,4 C 23,4 C 4,8 C 75 % 82 % 100 % 1015,4 hPa 0,0 l/m 0,8 km/h (0 Bft) W-SW 247 5 min 14,1 C 23,4 C 2,7 km/h (1 Bft)
19.10.2017 12:50 18,8 C 12,9 C 16,4 C 24,1 C 24,1 C 5,3 C 72 % 82 % 100 % 1015,4 hPa 0,0 l/m 1,3 km/h (1 Bft) W-SW 247 5 min 13,6 C 24,1 C 2,4 km/h (1 Bft)
19.10.2017 12:55 18,9 C 12,9 C 16,7 C 25,1 C 25,1 C 6,2 C 71 % 81 % 100 % 1015,4 hPa 0,0 l/m 1,3 km/h (1 Bft) W-SW 247 5 min 13,5 C 25,1 C 3,7 km/h (1 Bft)
19.10.2017 13:00 19,1 C 13,0 C 16,9 C 25,5 C 25,5 C 6,4 C 69 % 81 % 100 % 1015,4 hPa 0,0 l/m 1,3 km/h (1 Bft) S-SW 202 5 min 13,3 C 25,5 C 3,4 km/h (1 Bft)
19.10.2017 13:05 19,3 C 13,0 C 16,9 C 26,0 C 26,0 C 6,7 C 68 % 81 % 100 % 1015,0 hPa 0,0 l/m 1,9 km/h (1 Bft) S 180 5 min 13,2 C 26,0 C 1,9 km/h (1 Bft)
19.10.2017 13:10 19,5 C 13,0 C 17,0 C 26,1 C 26,1 C 6,6 C 67 % 80 % 100 % 1015,0 hPa 0,0 l/m 2,3 km/h (1 Bft) SW 225 5 min 13,2 C 26,1 C 3,5 km/h (1 Bft)
19.10.2017 13:15 19,7 C 13,1 C 17,2 C 25,7 C 25,7 C 6,0 C 66 % 79 % 100 % 1015,0 hPa 0,0 l/m 1,9 km/h (1 Bft) S 180 5 min 13,2 C 25,7 C 2,1 km/h (1 Bft)
19.10.2017 13:20 19,7 C 13,1 C 17,2 C 25,5 C 25,5 C 5,8 C 65 % 79 % 100 % 1015,0 hPa 0,0 l/m 1,4 km/h (1 Bft) S-SO 157 5 min 12,9 C 25,5 C 0,0 km/h (0 Bft)
19.10.2017 13:25 19,9 C 13,1 C 17,4 C 26,0 C 26,0 C 6,1 C 64 % 79 % 100 % 1014,6 hPa 0,0 l/m 1,3 km/h (1 Bft) SW 225 5 min 12,9 C 26,0 C 3,2 km/h (1 Bft)
19.10.2017 13:30 19,9 C 13,1 C 17,5 C 25,8 C 25,8 C 5,9 C 64 % 78 % 100 % 1014,6 hPa 0,0 l/m 1,8 km/h (1 Bft) W-SW 247 5 min 12,9 C 25,8 C 2,6 km/h (1 Bft)
19.10.2017 13:35 20,1 C 13,2 C 17,6 C 24,7 C 24,7 C 4,6 C 64 % 78 % 100 % 1014,6 hPa 0,0 l/m 2,1 km/h (1 Bft) S-SO 157 5 min 13,1 C 24,7 C 0,0 km/h (0 Bft)
19.10.2017 13:40 20,1 C 13,1 C 17,8 C 24,6 C 24,6 C 4,5 C 63 % 77 % 100 % 1014,6 hPa 0,0 l/m 1,4 km/h (1 Bft) SW 225 5 min 12,8 C 24,6 C 0,0 km/h (0 Bft)
19.10.2017 13:45 20,2 C 13,1 C 17,9 C 23,9 C 23,9 C 3,7 C 63 % 76 % 97 % 1014,3 hPa 0,0 l/m 1,0 km/h (0 Bft) S 180 5 min 12,9 C 23,9 C 1,9 km/h (1 Bft)
19.10.2017 13:50 20,3 C 13,1 C 17,9 C 23,5 C 23,5 C 3,2 C 62 % 76 % 84 % 1014,3 hPa 0,0 l/m 0,8 km/h (0 Bft) S-SW 202 0 min 12,8 C 23,5 C 0,0 km/h (0 Bft)
19.10.2017 13:55 20,5 C 13,2 C 18,2 C 23,0 C 23,0 C 2,5 C 62 % 75 % 66 % 1014,3 hPa 0,0 l/m 0,6 km/h (0 Bft) S 180 0 min 13,0 C 23,0 C 0,0 km/h (0 Bft)
19.10.2017 14:00 20,5 C 13,2 C 18,4 C 23,0 C 23,0 C 2,5 C 60 % 74 % 66 % 1014,3 hPa 0,0 l/m 0,8 km/h (0 Bft) S 180 0 min 12,5 C 23,0 C 1,6 km/h (1 Bft)
19.10.2017 14:05 20,6 C 13,2 C 18,5 C 23,0 C 23,0 C 2,4 C 59 % 73 % 63 % 1014,1 hPa 0,0 l/m 0,6 km/h (0 Bft) SW 225 0 min 12,3 C 23,0 C 2,3 km/h (1 Bft)
19.10.2017 14:10 20,6 C 13,2 C 18,7 C 23,3 C 23,3 C 2,7 C 58 % 72 % 71 % 1014,1 hPa 0,0 l/m 0,8 km/h (0 Bft) SW 225 0 min 12,0 C 23,3 C 0,0 km/h (0 Bft)
19.10.2017 14:15 20,8 C 13,3 C 18,7 C 23,7 C 23,7 C 2,9 C 58 % 72 % 76 % 1014,1 hPa 0,0 l/m 0,6 km/h (0 Bft) SW 225 0 min 12,2 C 23,7 C 2,4 km/h (1 Bft)
19.10.2017 14:20 20,8 C 13,3 C 18,7 C 23,5 C 23,5 C 2,7 C 58 % 72 % 71 % 1014,1 hPa 0,0 l/m 1,1 km/h (1 Bft) W-SW 247 0 min 12,2 C 23,5 C 0,0 km/h (0 Bft)
19.10.2017 14:25 21,0 C 13,3 C 19,1 C 24,2 C 24,2 C 3,2 C 57 % 72 % 84 % 1014,0 hPa 0,0 l/m 1,9 km/h (1 Bft) W-SW 247 0 min 12,1 C 24,2 C 1,6 km/h (1 Bft)
19.10.2017 14:30 21,1 C 13,3 C 19,3 C 24,8 C 24,8 C 3,7 C 56 % 71 % 97 % 1014,0 hPa 0,0 l/m 1,9 km/h (1 Bft) W-SW 247 5 min 12,0 C 24,8 C 2,9 km/h (1 Bft)
19.10.2017 14:35 21,3 C 13,4 C 19,2 C 25,2 C 25,2 C 3,9 C 54 % 69 % 100 % 1014,0 hPa 0,0 l/m 1,6 km/h (1 Bft) W-SW 247 5 min 11,6 C 25,2 C 1,8 km/h (1 Bft)
19.10.2017 14:40 21,2 C 13,4 C 19,3 C 25,3 C 25,3 C 4,1 C 55 % 68 % 100 % 1014,0 hPa 0,0 l/m 1,0 km/h (0 Bft) SW 225 5 min 11,8 C 25,3 C 1,9 km/h (1 Bft)
19.10.2017 14:45 21,3 C 13,4 C 19,3 C 25,7 C 25,7 C 4,4 C 54 % 68 % 100 % 1013,7 hPa 0,0 l/m 0,6 km/h (0 Bft) SW 225 5 min 11,6 C 25,7 C 0,0 km/h (0 Bft)
19.10.2017 14:50 21,3 C 13,4 C 19,5 C 26,2 C 26,2 C 4,9 C 54 % 68 % 100 % 1013,7 hPa 0,0 l/m 0,6 km/h (0 Bft) W-SW 247 5 min 11,6 C 26,2 C 0,0 km/h (0 Bft)
19.10.2017 14:55 21,3 C 13,5 C 19,5 C 25,7 C 25,7 C 4,4 C 54 % 66 % 100 % 1013,7 hPa 0,0 l/m 0,2 km/h (0 Bft) S 180 5 min 11,6 C 25,7 C 0,0 km/h (0 Bft)
19.10.2017 15:00 21,4 C 13,5 C 19,5 C 25,3 C 25,3 C 3,9 C 52 % 66 % 100 % 1013,7 hPa 0,0 l/m 0,5 km/h (0 Bft) S 180 5 min 11,1 C 25,3 C 1,9 km/h (1 Bft)
19.10.2017 15:05 21,7 C 13,5 C 19,9 C 25,8 C 25,8 C 4,1 C 50 % 64 % 100 % 1013,6 hPa 0,0 l/m 1,1 km/h (1 Bft) SW 225 5 min 10,8 C 25,8 C 2,4 km/h (1 Bft)
19.10.2017 15:10 21,9 C 13,5 C 20,1 C 26,4 C 26,4 C 4,5 C 49 % 63 % 100 % 1013,6 hPa 0,0 l/m 1,3 km/h (1 Bft) S 180 5 min 10,7 C 26,4 C 3,2 km/h (1 Bft)
19.10.2017 15:15 21,8 C 13,6 C 20,0 C 27,2 C 27,2 C 5,4 C 50 % 62 % 100 % 1013,6 hPa 0,0 l/m 1,1 km/h (1 Bft) O-NO 67 5 min 10,9 C 27,2 C 1,6 km/h (1 Bft)
19.10.2017 15:20 21,8 C 13,6 C 19,9 C 27,2 C 27,2 C 5,4 C 51 % 62 % 100 % 1013,6 hPa 0,0 l/m 1,1 km/h (1 Bft) O-NO 67 5 min 11,2 C 27,2 C 0,0 km/h (0 Bft)
19.10.2017 15:25 21,9 C 13,6 C 19,8 C 28,1 C 28,1 C 6,2 C 50 % 63 % 100 % 1013,6 hPa 0,0 l/m 0,5 km/h (0 Bft) NW 315 5 min 11,0 C 28,1 C 1,6 km/h (1 Bft)
19.10.2017 15:30 21,9 C 13,6 C 19,9 C 28,2 C 28,2 C 6,3 C 50 % 64 % 100 % 1013,6 hPa 0,0 l/m 0,5 km/h (0 Bft) NW 315 5 min 11,0 C 28,2 C 1,8 km/h (1 Bft)
19.10.2017 15:35 22,2 C 13,6 C 20,1 C 28,2 C 28,2 C 6,0 C 48 % 63 % 100 % 1013,6 hPa 0,0 l/m 1,3 km/h (1 Bft) W-SW 247 5 min 10,7 C 28,2 C 2,6 km/h (1 Bft)
19.10.2017 15:40 22,3 C 13,6 C 20,4 C 28,0 C 28,0 C 5,7 C 47 % 62 % 100 % 1013,6 hPa 0,0 l/m 1,8 km/h (1 Bft) SW 225 5 min 10,4 C 28,0 C 0,0 km/h (0 Bft)
19.10.2017 15:45 22,5 C 13,7 C 20,4 C 27,9 C 27,9 C 5,4 C 48 % 61 % 100 % 1013,4 hPa 0,0 l/m 1,6 km/h (1 Bft) SW 225 5 min 10,9 C 27,9 C 0,0 km/h (0 Bft)
19.10.2017 15:50 22,7 C 13,7 C 20,6 C 27,9 C 27,9 C 5,2 C 47 % 61 % 100 % 1013,4 hPa 0,0 l/m 1,4 km/h (1 Bft) W-SW 247 5 min 10,8 C 27,9 C 1,9 km/h (1 Bft)
19.10.2017 15:55 22,9 C 13,7 C 20,7 C 27,9 C 27,9 C 5,0 C 48 % 59 % 100 % 1013,4 hPa 0,0 l/m 0,8 km/h (0 Bft) SW 225 5 min 11,3 C 27,9 C 0,0 km/h (0 Bft)
19.10.2017 16:00 23,2 C 13,7 C 20,5 C 28,0 C 28,0 C 4,8 C 47 % 60 % 100 % 1013,4 hPa 0,0 l/m 0,8 km/h (0 Bft) SW 225 5 min 11,3 C 28,0 C 2,3 km/h (1 Bft)
19.10.2017 16:05 23,5 C 13,7 C 20,6 C 27,9 C 27,9 C 4,4 C 46 % 60 % 100 % 1013,6 hPa 0,0 l/m 1,4 km/h (1 Bft) W-SW 247 5 min 11,2 C 27,9 C 2,9 km/h (1 Bft)
19.10.2017 16:10 23,4 C 13,8 C 20,7 C 27,7 C 27,7 C 4,3 C 46 % 60 % 100 % 1013,6 hPa 0,0 l/m 1,6 km/h (1 Bft) W-SW 247 5 min 11,1 C 27,7 C 0,0 km/h (0 Bft)
19.10.2017 16:15 23,3 C 13,8 C 20,6 C 27,4 C 27,4 C 4,1 C 46 % 60 % 100 % 1013,6 hPa 0,0 l/m 1,8 km/h (1 Bft) W-SW 247 5 min 11,0 C 27,4 C 2,6 km/h (1 Bft)
19.10.2017 16:20 23,4 C 13,8 C 20,4 C 27,2 C 27,2 C 3,8 C 47 % 60 % 100 % 1013,6 hPa 0,0 l/m 1,6 km/h (1 Bft) W-SW 247 5 min 11,4 C 27,2 C 2,4 km/h (1 Bft)
19.10.2017 16:25 23,3 C 13,8 C 20,2 C 27,0 C 27,0 C 3,7 C 47 % 61 % 97 % 1013,4 hPa 0,0 l/m 1,4 km/h (1 Bft) SW 225 5 min 11,3 C 27,0 C 0,0 km/h (0 Bft)
19.10.2017 16:30 23,2 C 13,8 C 20,1 C 26,7 C 26,7 C 3,5 C 47 % 61 % 92 % 1013,4 hPa 0,0 l/m 1,0 km/h (0 Bft) S 180 5 min 11,3 C 26,7 C 0,0 km/h (0 Bft)
19.10.2017 16:35 23,1 C 13,9 C 19,8 C 25,7 C 25,7 C 2,6 C 48 % 62 % 68 % 1013,4 hPa 0,0 l/m 0,0 km/h (0 Bft) S 180 5 min 11,5 C 25,7 C 0,0 km/h (0 Bft)
19.10.2017 16:40 22,8 C 13,9 C 19,5 C 25,3 C 25,3 C 2,5 C 49 % 63 % 66 % 1013,4 hPa 0,0 l/m 0,0 km/h (0 Bft) S 180 5 min 11,5 C 25,3 C 0,0 km/h (0 Bft)
19.10.2017 16:45 22,5 C 13,9 C 19,2 C 24,3 C 24,3 C 1,8 C 49 % 64 % 47 % 1013,3 hPa 0,0 l/m 0,0 km/h (0 Bft) S-SW 202 0 min 11,2 C 24,3 C 0,0 km/h (0 Bft)
19.10.2017 16:50 22,3 C 13,9 C 19,1 C 23,5 C 23,5 C 1,2 C 50 % 65 % 32 % 1013,3 hPa 0,0 l/m 0,2 km/h (0 Bft) S 180 0 min 11,4 C 23,5 C 0,0 km/h (0 Bft)
19.10.2017 16:55 22,0 C 13,9 C 18,9 C 23,0 C 23,0 C 1,0 C 50 % 66 % 26 % 1013,3 hPa 0,0 l/m 0,3 km/h (0 Bft) SW 225 0 min 11,1 C 23,0 C 2,6 km/h (1 Bft)
19.10.2017 17:00 22,0 C 13,9 C 18,8 C 22,4 C 22,4 C 0,4 C 50 % 66 % 11 % 1013,3 hPa 0,0 l/m 0,3 km/h (0 Bft) SW 225 0 min 11,1 C 22,4 C 0,0 km/h (0 Bft)
19.10.2017 17:05 21,7 C 13,9 C 18,6 C 22,0 C 22,0 C 0,3 C 51 % 66 % 8 % 1013,4 hPa 0,0 l/m 0,2 km/h (0 Bft) SW 225 0 min 11,1 C 22,0 C 0,0 km/h (0 Bft)
19.10.2017 17:10 21,6 C 14,1 C 18,5 C 22,0 C 22,0 C 0,4 C 51 % 67 % 11 % 1013,4 hPa 0,0 l/m 0,0 km/h (0 Bft) SW 225 0 min 11,0 C 22,0 C 0,0 km/h (0 Bft)
19.10.2017 17:15 21,0 C 14,1 C 18,2 C 21,2 C 21,2 C 0,2 C 51 % 66 % 5 % 1013,4 hPa 0,0 l/m 0,0 km/h (0 Bft) SW 225 0 min 10,5 C 21,2 C 0,0 km/h (0 Bft)
19.10.2017 17:20 20,7 C 14,1 C 18,1 C 20,7 C 20,7 C 0,0 C 53 % 67 % 0 % 1013,4 hPa 0,0 l/m 0,0 km/h (0 Bft) SW 225 0 min 10,8 C 20,7 C 0,0 km/h (0 Bft)
19.10.2017 17:25 20,1 C 14,1 C 17,9 C 20,1 C 20,1 C 0,0 C 54 % 68 % 0 % 1012,9 hPa 0,0 l/m 0,0 km/h (0 Bft) SW 225 0 min 10,5 C 20,1 C 0,0 km/h (0 Bft)
19.10.2017 17:30 19,9 C 14,1 C 17,7 C 19,8 C 19,7 C 0,0 C 55 % 68 % 0 % 1012,9 hPa 0,0 l/m 0,0 km/h (0 Bft) SW 225 0 min 10,6 C 19,7 C 0,0 km/h (0 Bft)
19.10.2017 17:35 19,5 C 14,1 C 17,5 C 19,3 C 19,0 C 0,0 C 56 % 69 % 0 % 1012,9 hPa 0,0 l/m 0,0 km/h (0 Bft) SW 225 0 min 10,5 C 19,0 C 0,0 km/h (0 Bft)
19.10.2017 17:40 19,3 C 14,1 C 17,3 C 19,0 C 18,5 C 0,0 C 57 % 69 % 0 % 1012,9 hPa 0,0 l/m 0,0 km/h (0 Bft) SW 225 0 min 10,6 C 18,5 C 0,0 km/h (0 Bft)
19.10.2017 17:45 18,9 C 14,1 C 16,8 C 18,6 C 18,0 C 0,0 C 59 % 71 % 0 % 1013,6 hPa 0,0 l/m 0,0 km/h (0 Bft) SW 225 0 min 10,7 C 18,0 C 0,0 km/h (0 Bft)
19.10.2017 17:50 18,7 C 14,1 C 16,5 C 18,3 C 17,6 C 0,0 C 59 % 71 % 0 % 1013,6 hPa 0,0 l/m 0,0 km/h (0 Bft) SW 225 0 min 10,5 C 17,6 C 0,0 km/h (0 Bft)
19.10.2017 17:55 18,3 C 14,2 C 16,3 C 17,9 C 17,1 C 0,0 C 60 % 72 % 0 % 1013,6 hPa 0,0 l/m 0,0 km/h (0 Bft) SW 225 0 min 10,4 C 17,1 C 0,0 km/h (0 Bft)
19.10.2017 18:00 17,9 C 14,1 C 16,0 C 17,5 C 16,7 C 0,0 C 61 % 74 % 0 % 1013,6 hPa 0,0 l/m 0,0 km/h (0 Bft) SW 225 0 min 10,3 C 16,7 C 0,0 km/h (0 Bft)
19.10.2017 18:05 17,5 C 14,2 C 15,6 C 17,1 C 16,2 C 0,0 C 63 % 74 % 0 % 1013,3 hPa 0,0 l/m 0,0 km/h (0 Bft) SW 225 0 min 10,4 C 16,2 C 0,0 km/h (0 Bft)
19.10.2017 18:10 17,2 C 14,2 C 15,5 C 16,8 C 15,9 C 0,0 C 64 % 75 % 0 % 1013,3 hPa 0,0 l/m 0,2 km/h (0 Bft) S 180 0 min 10,3 C 15,9 C 0,0 km/h (0 Bft)
19.10.2017 18:15 16,7 C 14,2 C 15,1 C 16,2 C 15,3 C 0,0 C 65 % 76 % 0 % 1013,3 hPa 0,0 l/m 0,2 km/h (0 Bft) S 180 0 min 10,1 C 15,3 C 0,0 km/h (0 Bft)
19.10.2017 18:20 16,5 C 14,2 C 14,8 C 16,0 C 15,0 C 0,0 C 65 % 76 % 0 % 1013,3 hPa 0,0 l/m 0,0 km/h (0 Bft) S 180 0 min 9,9 C 15,0 C 0,0 km/h (0 Bft)
19.10.2017 18:25 16,1 C 14,2 C 14,7 C 15,5 C 14,4 C 0,0 C 66 % 77 % 0 % 1013,2 hPa 0,0 l/m 0,0 km/h (0 Bft) S 180 0 min 9,7 C 14,4 C 0,0 km/h (0 Bft)
19.10.2017 18:30 15,8 C 14,2 C 14,6 C 15,3 C 14,2 C 0,0 C 67 % 77 % 0 % 1013,2 hPa 0,0 l/m 0,0 km/h (0 Bft) S 180 0 min 9,7 C 14,2 C 0,0 km/h (0 Bft)
19.10.2017 18:35 15,4 C 14,2 C 14,3 C 14,9 C 13,9 C 0,0 C 67 % 78 % 0 % 1013,2 hPa 0,0 l/m 0,0 km/h (0 Bft) S 180 0 min 9,3 C 13,9 C 0,0 km/h (0 Bft)
19.10.2017 18:40 15,2 C 14,2 C 14,1 C 14,7 C 13,8 C 0,0 C 69 % 79 % 0 % 1013,2 hPa 0,0 l/m 0,0 km/h (0 Bft) S 180 0 min 9,6 C 13,8 C 0,0 km/h (0 Bft)
19.10.2017 18:45 15,0 C 14,3 C 13,9 C 14,6 C 13,7 C 0,0 C 70 % 79 % 0 % 1013,5 hPa 0,0 l/m 0,0 km/h (0 Bft) S 180 0 min 9,6 C 13,7 C 0,0 km/h (0 Bft)
19.10.2017 18:50 14,9 C 14,3 C 13,8 C 14,4 C 13,5 C 0,0 C 70 % 79 % 0 % 1013,5 hPa 0,0 l/m 0,0 km/h (0 Bft) S 180 0 min 9,5 C 13,5 C 0,0 km/h (0 Bft)
19.10.2017 18:55 14,5 C 14,3 C 13,5 C 14,0 C 13,1 C 0,0 C 71 % 80 % 0 % 1013,5 hPa 0,0 l/m 0,0 km/h (0 Bft) S 180 0 min 9,3 C 13,1 C 0,0 km/h (0 Bft)
19.10.2017 19:00 14,3 C 14,3 C 13,4 C 13,7 C 12,6 C 0,0 C 71 % 80 % 0 % 1013,5 hPa 0,0 l/m 0,0 km/h (0 Bft) S 180 0 min 9,1 C 12,6 C 0,0 km/h (0 Bft)
19.10.2017 19:05 14,0 C 14,4 C 13,0 C 13,4 C 12,3 C 0,0 C 71 % 80 % 0 % 1013,4 hPa 0,0 l/m 0,0 km/h (0 Bft) S 180 0 min 8,8 C 12,3 C 0,0 km/h (0 Bft)
19.10.2017 19:10 13,9 C 14,4 C 12,9 C 13,3 C 12,1 C 0,0 C 73 % 81 % 0 % 1013,4 hPa 0,0 l/m 0,0 km/h (0 Bft) S 180 0 min 9,1 C 12,1 C 0,0 km/h (0 Bft)
19.10.2017 19:15 13,6 C 14,4 C 12,8 C 13,1 C 12,1 C 0,0 C 74 % 81 % 0 % 1013,4 hPa 0,0 l/m 0,0 km/h (0 Bft) S 180 0 min 9,1 C 12,1 C 0,0 km/h (0 Bft)
19.10.2017 19:20 13,5 C 14,4 C 12,7 C 13,0 C 12,1 C 0,0 C 74 % 82 % 0 % 1013,4 hPa 0,0 l/m 0,0 km/h (0 Bft) S 180 0 min 9,0 C 12,1 C 0,0 km/h (0 Bft)
19.10.2017 19:25 13,2 C 14,3 C 12,5 C 12,8 C 11,9 C 0,0 C 75 % 82 % 0 % 1014,0 hPa 0,0 l/m 0,0 km/h (0 Bft) S 180 0 min 8,9 C 11,9 C 0,0 km/h (0 Bft)
19.10.2017 19:30 13,1 C 14,3 C 12,4 C 12,7 C 11,8 C 0,0 C 75 % 82 % 0 % 1014,0 hPa 0,0 l/m 0,0 km/h (0 Bft) S 180 0 min 8,8 C 11,8 C 0,0 km/h (0 Bft)
19.10.2017 19:35 12,9 C 14,3 C 12,3 C 12,5 C 11,6 C 0,0 C 76 % 83 % 0 % 1014,0 hPa 0,0 l/m 0,0 km/h (0 Bft) S 180 0 min 8,8 C 11,6 C 0,0 km/h (0 Bft)
19.10.2017 19:40 12,7 C 14,3 C 12,2 C 12,2 C 11,3 C 0,0 C 76 % 83 % 0 % 1014,0 hPa 0,0 l/m 0,0 km/h (0 Bft) S 180 0 min 8,6 C 11,3 C 0,0 km/h (0 Bft)
19.10.2017 19:45 12,5 C 14,3 C 12,0 C 12,0 C 11,1 C 0,0 C 77 % 83 % 0 % 1013,5 hPa 0,0 l/m 0,0 km/h (0 Bft) S 180 0 min 8,6 C 11,1 C 0,0 km/h (0 Bft)
19.10.2017 19:50 12,5 C 14,4 C 11,9 C 12,0 C 10,9 C 0,0 C 77 % 83 % 0 % 1013,5 hPa 0,0 l/m 0,0 km/h (0 Bft) S 180 0 min 8,6 C 10,9 C 0,0 km/h (0 Bft)
19.10.2017 19:55 12,3 C 14,4 C 11,6 C 11,8 C 10,9 C 0,0 C 78 % 84 % 0 % 1013,5 hPa 0,0 l/m 0,0 km/h (0 Bft) S 180 0 min 8,6 C 10,9 C 0,0 km/h (0 Bft)
19.10.2017 20:00 12,1 C 14,4 C 11,5 C 11,6 C 10,7 C 0,0 C 78 % 84 % 0 % 1013,5 hPa 0,0 l/m 0,0 km/h (0 Bft) S 180 0 min 8,4 C 10,7 C 0,0 km/h (0 Bft)
19.10.2017 20:05 12,0 C 14,4 C 11,3 C 11,5 C 10,6 C 0,0 C 79 % 84 % 0 % 1013,4 hPa 0,0 l/m 0,0 km/h (0 Bft) S 180 0 min 8,5 C 10,6 C 0,0 km/h (0 Bft)
19.10.2017 20:10 11,9 C 14,3 C 11,2 C 11,5 C 10,6 C 0,0 C 80 % 84 % 0 % 1013,4 hPa 0,0 l/m 0,0 km/h (0 Bft) S 180 0 min 8,6 C 10,6 C 0,0 km/h (0 Bft)
19.10.2017 20:15 11,7 C 14,4 C 11,2 C 11,3 C 10,4 C 0,0 C 80 % 85 % 0 % 1013,4 hPa 0,0 l/m 0,2 km/h (0 Bft) S 180 0 min 8,4 C 10,4 C 0,0 km/h (0 Bft)
19.10.2017 20:20 11,6 C 14,4 C 11,2 C 11,2 C 10,3 C 0,0 C 80 % 84 % 0 % 1013,4 hPa 0,0 l/m 0,2 km/h (0 Bft) S 180 0 min 8,3 C 10,3 C 0,0 km/h (0 Bft)
19.10.2017 20:25 11,4 C 14,4 C 11,1 C 10,9 C 10,0 C 0,0 C 80 % 85 % 0 % 1013,0 hPa 0,0 l/m 0,0 km/h (0 Bft) S 180 0 min 8,1 C 10,0 C 0,0 km/h (0 Bft)
19.10.2017 20:30 11,3 C 14,4 C 11,0 C 10,8 C 9,9 C 0,0 C 80 % 85 % 0 % 1013,0 hPa 0,0 l/m 0,0 km/h (0 Bft) S 180 0 min 8,0 C 9,9 C 0,0 km/h (0 Bft)
19.10.2017 20:35 11,2 C 14,4 C 10,8 C 10,8 C 9,9 C 0,0 C 81 % 85 % 0 % 1013,0 hPa 0,0 l/m 0,0 km/h (0 Bft) S 180 0 min 8,1 C 9,9 C 0,0 km/h (0 Bft)
19.10.2017 20:40 11,1 C 14,5 C 10,7 C 10,7 C 9,9 C 0,0 C 82 % 85 % 0 % 1013,0 hPa 0,0 l/m 0,0 km/h (0 Bft) S 180 0 min 8,1 C 9,9 C 0,0 km/h (0 Bft)
19.10.2017 20:45 10,9 C 14,4 C 10,7 C 10,6 C 9,9 C 0,0 C 82 % 85 % 0 % 1013,4 hPa 0,0 l/m 0,0 km/h (0 Bft) S 180 0 min 7,9 C 9,9 C 0,0 km/h (0 Bft)
19.10.2017 20:50 10,8 C 14,4 C 10,5 C 10,5 C 9,8 C 0,0 C 82 % 85 % 0 % 1013,4 hPa 0,0 l/m 0,0 km/h (0 Bft) S 180 0 min 7,9 C 9,8 C 0,0 km/h (0 Bft)
19.10.2017 20:55 10,6 C 14,4 C 10,4 C 10,2 C 9,5 C 0,0 C 82 % 85 % 0 % 1013,4 hPa 0,0 l/m 0,0 km/h (0 Bft) S 180 0 min 7,7 C 9,5 C 0,0 km/h (0 Bft)
19.10.2017 21:00 10,5 C 14,5 C 10,5 C 10,2 C 9,5 C 0,0 C 82 % 85 % 0 % 1013,4 hPa 0,0 l/m 0,0 km/h (0 Bft) S 180 0 min 7,6 C 9,5 C 0,0 km/h (0 Bft)
19.10.2017 21:05 10,4 C 14,5 C 10,2 C 10,0 C 9,3 C 0,0 C 82 % 85 % 0 % 1013,3 hPa 0,0 l/m 0,0 km/h (0 Bft) S 180 0 min 7,5 C 9,3 C 0,0 km/h (0 Bft)
19.10.2017 21:10 10,3 C 14,5 C 10,3 C 10,0 C 9,4 C 0,0 C 82 % 85 % 0 % 1013,3 hPa 0,0 l/m 0,0 km/h (0 Bft) S 180 0 min 7,4 C 9,4 C 0,0 km/h (0 Bft)
19.10.2017 21:15 10,3 C 14,5 C 10,3 C 10,0 C 9,4 C 0,0 C 82 % 85 % 0 % 1013,3 hPa 0,0 l/m 0,0 km/h (0 Bft) S 180 0 min 7,4 C 9,4 C 0,0 km/h (0 Bft)
19.10.2017 21:20 10,1 C 14,5 C 10,3 C 9,9 C 9,5 C 0,0 C 83 % 85 % 0 % 1013,3 hPa 0,0 l/m 0,0 km/h (0 Bft) S 180 0 min 7,3 C 9,5 C 0,0 km/h (0 Bft)
19.10.2017 21:25 10,0 C 14,4 C 10,3 C 9,9 C 9,6 C 0,0 C 83 % 85 % 0 % 1013,3 hPa 0,0 l/m 0,0 km/h (0 Bft) S 180 0 min 7,2 C 9,6 C 0,0 km/h (0 Bft)
19.10.2017 21:30 10,0 C 14,4 C 10,3 C 9,9 C 9,7 C 0,0 C 83 % 85 % 0 % 1013,3 hPa 0,0 l/m 0,0 km/h (0 Bft) S 180 0 min 7,2 C 9,7 C 0,0 km/h (0 Bft)
19.10.2017 21:35 9,9 C 14,4 C 10,4 C 9,9 C 9,8 C 0,0 C 84 % 85 % 0 % 1013,3 hPa 0,0 l/m 0,0 km/h (0 Bft) S 180 0 min 7,3 C 9,8 C 0,0 km/h (0 Bft)
19.10.2017 21:40 10,0 C 14,3 C 10,5 C 10,0 C 9,9 C 0,0 C 84 % 85 % 0 % 1013,3 hPa 0,0 l/m 0,0 km/h (0 Bft) S 180 0 min 7,4 C 9,9 C 0,0 km/h (0 Bft)
19.10.2017 21:45 9,9 C 14,3 C 10,7 C 10,1 C 10,1 C 0,2 C 84 % 84 % 0 % 1013,2 hPa 0,0 l/m 0,0 km/h (0 Bft) S 180 0 min 7,3 C 10,1 C 0,0 km/h (0 Bft)
19.10.2017 21:50 9,9 C 14,3 C 10,7 C 10,3 C 10,3 C 0,4 C 84 % 84 % 0 % 1013,2 hPa 0,0 l/m 0,0 km/h (0 Bft) S 180 0 min 7,3 C 10,3 C 0,0 km/h (0 Bft)
19.10.2017 21:55 9,9 C 14,4 C 10,8 C 10,6 C 10,6 C 0,7 C 85 % 84 % 0 % 1013,2 hPa 0,0 l/m 0,0 km/h (0 Bft) S 180 0 min 7,5 C 10,6 C 0,0 km/h (0 Bft)
19.10.2017 22:00 9,9 C 14,4 C 10,9 C 10,8 C 10,8 C 0,9 C 85 % 84 % 0 % 1013,2 hPa 0,0 l/m 0,0 km/h (0 Bft) S 180 0 min 7,5 C 10,8 C 0,0 km/h (0 Bft)
19.10.2017 22:05 9,9 C 14,4 C 10,8 C 11,1 C 11,1 C 1,2 C 85 % 84 % 0 % 1013,1 hPa 0,0 l/m 0,0 km/h (0 Bft) S 180 0 min 7,5 C 11,1 C 0,0 km/h (0 Bft)
19.10.2017 22:10 10,0 C 14,3 C 10,9 C 11,3 C 11,3 C 1,3 C 85 % 84 % 0 % 1013,1 hPa 0,0 l/m 0,0 km/h (0 Bft) S 180 0 min 7,6 C 11,3 C 0,0 km/h (0 Bft)
19.10.2017 22:15 10,0 C 14,3 C 11,1 C 11,5 C 11,5 C 1,5 C 85 % 84 % 0 % 1013,1 hPa 0,0 l/m 0,0 km/h (0 Bft) S 180 0 min 7,6 C 11,5 C 0,0 km/h (0 Bft)
19.10.2017 22:20 10,1 C 14,3 C 11,1 C 11,7 C 11,7 C 1,6 C 85 % 84 % 0 % 1013,1 hPa 0,0 l/m 0,0 km/h (0 Bft) S 180 0 min 7,7 C 11,7 C 0,0 km/h (0 Bft)
19.10.2017 22:25 10,0 C 14,3 C 11,3 C 11,9 C 11,9 C 1,9 C 85 % 84 % 0 % 1013,4 hPa 0,0 l/m 0,0 km/h (0 Bft) S 180 0 min 7,6 C 11,9 C 0,0 km/h (0 Bft)
19.10.2017 22:30 10,1 C 14,3 C 11,2 C 11,9 C 11,9 C 1,8 C 85 % 83 % 0 % 1013,4 hPa 0,0 l/m 0,0 km/h (0 Bft) S 180 0 min 7,7 C 11,9 C 0,0 km/h (0 Bft)
19.10.2017 22:35 10,1 C 14,3 C 11,3 C 12,0 C 12,0 C 1,9 C 85 % 83 % 0 % 1013,4 hPa 0,0 l/m 0,0 km/h (0 Bft) S 180 0 min 7,7 C 12,0 C 0,0 km/h (0 Bft)
19.10.2017 22:40 10,3 C 14,2 C 11,5 C 12,1 C 12,1 C 1,8 C 86 % 84 % 0 % 1013,4 hPa 0,0 l/m 0,0 km/h (0 Bft) S 180 0 min 8,1 C 12,1 C 0,0 km/h (0 Bft)
19.10.2017 22:45 10,2 C 14,2 C 11,4 C 12,1 C 12,1 C 1,9 C 85 % 84 % 0 % 1013,3 hPa 0,0 l/m 0,0 km/h (0 Bft) S 180 0 min 7,8 C 12,1 C 0,0 km/h (0 Bft)
19.10.2017 22:50 10,3 C 14,3 C 11,4 C 12,1 C 12,1 C 1,8 C 86 % 84 % 0 % 1013,3 hPa 0,0 l/m 0,0 km/h (0 Bft) S 180 0 min 8,1 C 12,1 C 0,0 km/h (0 Bft)
19.10.2017 22:55 10,3 C 14,2 C 11,5 C 12,0 C 12,0 C 1,7 C 86 % 84 % 0 % 1013,3 hPa 0,0 l/m 0,0 km/h (0 Bft) S 180 0 min 8,1 C 12,0 C 0,0 km/h (0 Bft)
19.10.2017 23:00 10,4 C 14,2 C 11,5 C 12,0 C 12,0 C 1,6 C 86 % 84 % 0 % 1013,3 hPa 0,0 l/m 0,0 km/h (0 Bft) S 180 0 min 8,2 C 12,0 C 0,0 km/h (0 Bft)
19.10.2017 23:05 10,5 C 14,2 C 11,6 C 12,1 C 12,1 C 1,6 C 86 % 84 % 0 % 1013,4 hPa 0,0 l/m 0,0 km/h (0 Bft) S 180 0 min 8,3 C 12,1 C 0,0 km/h (0 Bft)
19.10.2017 23:10 10,5 C 14,1 C 11,7 C 12,0 C 12,0 C 1,5 C 86 % 84 % 0 % 1013,4 hPa 0,0 l/m 0,0 km/h (0 Bft) SW 225 0 min 8,3 C 12,0 C 0,0 km/h (0 Bft)
19.10.2017 23:15 10,5 C 14,1 C 11,6 C 11,9 C 11,9 C 1,4 C 85 % 84 % 0 % 1013,4 hPa 0,0 l/m 0,0 km/h (0 Bft) SW 225 0 min 8,1 C 11,9 C 0,0 km/h (0 Bft)
19.10.2017 23:20 10,6 C 14,2 C 11,6 C 11,7 C 11,7 C 1,1 C 85 % 84 % 0 % 1013,4 hPa 0,0 l/m 0,0 km/h (0 Bft) SW 225 0 min 8,2 C 11,7 C 0,0 km/h (0 Bft)
19.10.2017 23:25 10,6 C 14,2 C 11,5 C 11,4 C 11,4 C 0,8 C 85 % 84 % 0 % 1013,3 hPa 0,0 l/m 0,0 km/h (0 Bft) SW 225 0 min 8,2 C 11,4 C 0,0 km/h (0 Bft)
19.10.2017 23:30 10,6 C 14,2 C 11,3 C 11,2 C 11,2 C 0,6 C 85 % 84 % 0 % 1013,3 hPa 0,0 l/m 0,0 km/h (0 Bft) SW 225 0 min 8,2 C 11,2 C 0,0 km/h (0 Bft)
19.10.2017 23:35 10,5 C 14,2 C 11,1 C 10,9 C 10,9 C 0,4 C 85 % 84 % 0 % 1013,3 hPa 0,0 l/m 0,0 km/h (0 Bft) SW 225 0 min 8,1 C 10,9 C 0,0 km/h (0 Bft)
19.10.2017 23:40 10,5 C 14,2 C 11,0 C 10,7 C 10,7 C 0,2 C 85 % 84 % 0 % 1013,3 hPa 0,0 l/m 0,0 km/h (0 Bft) SW 225 0 min 8,1 C 10,7 C 0,0 km/h (0 Bft)
19.10.2017 23:45 10,4 C 14,2 C 10,8 C 10,5 C 10,5 C 0,1 C 85 % 84 % 0 % 1013,3 hPa 0,0 l/m 0,0 km/h (0 Bft) SW 225 0 min 8,0 C 10,5 C 0,0 km/h (0 Bft)
19.10.2017 23:50 10,5 C 14,2 C 10,8 C 10,5 C 10,5 C 0,0 C 85 % 84 % 0 % 1013,3 hPa 0,0 l/m 0,0 km/h (0 Bft) SW 225 0 min 8,1 C 10,5 C 0,0 km/h (0 Bft)
19.10.2017 23:55 10,3 C 14,2 C 10,7 C 10,3 C 10,3 C 0,0 C 85 % 84 % 0 % 1013,3 hPa 0,0 l/m 0,0 km/h (0 Bft) SW 225 0 min 7,9 C 10,3 C 0,0 km/h (0 Bft)
_ Min-Zeit 07:50 11:10 06:40 07:45 07:45 17:20 16:05 15:55 00:00 00:00 - 00:00 - - - 06:20 07:45 00:00
Minimum _ 3,9 C 12,7 C 6,0 C 4,6 C 4,6 C 0,0 C 46 % 59 % 0 % 1012,9 hPa - 0,0 km/h (0 Bft) - - - 2,0 C 4,6 C 0,0 km/h (0 Bft)
_ Max-Zeit 16:05 00:00 15:55 15:30 15:30 13:05 06:35 20:15 11:35 10:25 00:00 13:10 - - 07:55 12:35 15:30 12:35
Maximum _ 23,5 C 14,5 C 20,7 C 28,2 C 28,2 C 6,7 C 88 % 85 % 100 % 1015,5 hPa 0,0 l/m 2,3 km/h
SW (1 Bft)
- - 5 min 14,4 C 28,2 C 6,4 km/h
W-SW (2 Bft)
Durchschnitt _ 11,1 C 13,7 C 11,5 C 12,7 C 12,5 C 1,6 C 78 % 77 % 29 % 1013,9 hPa #0,0 l/m 0,2 km/h (0 Bft) W-SW - #5:45 h 7,1 C 12,5 C 0,4 km/h (0 Bft)
2017 www.wetterstation-wechselburg.de